createdAt,value
2019-03-01T00:00:03.284Z,3.26
2019-03-01T00:11:07.804Z,3.26
2019-03-01T00:22:03.051Z,3.26
2019-03-01T00:33:00.809Z,3.25
2019-03-01T00:43:36.055Z,3.25
2019-03-01T00:54:34.811Z,3.25
2019-03-01T01:05:39.112Z,3.25
2019-03-01T01:16:40.274Z,3.25
2019-03-01T01:27:44.933Z,3.25
2019-03-01T01:38:45.121Z,3.24
2019-03-01T01:49:41.003Z,3.24
2019-03-01T02:00:39.751Z,3.24
2019-03-01T02:11:37.504Z,3.23
2019-03-01T02:22:35.575Z,3.23
2019-03-01T02:33:37.161Z,3.23
2019-03-01T02:44:38.520Z,3.23
2019-03-01T02:55:39.101Z,3.23
2019-03-01T03:06:43.775Z,3.23
2019-03-01T03:17:41.877Z,3.22
2019-03-01T03:28:42.702Z,3.22
2019-03-01T03:39:46.254Z,3.22
2019-03-01T03:50:44.522Z,3.21
2019-03-01T04:01:42.726Z,3.22
2019-03-01T04:12:38.129Z,3.22
2019-03-01T04:23:39.317Z,3.21
2019-03-01T04:34:40.995Z,3.21
2019-03-01T04:45:42.363Z,3.21
2019-03-01T04:56:40.573Z,3.21
2019-03-01T05:07:43.461Z,3.21
2019-03-01T05:18:45.556Z,3.21
2019-03-01T05:29:50.327Z,3.21
2019-03-01T05:40:47.232Z,3.20
2019-03-01T05:51:44.018Z,3.20
2019-03-01T06:02:43.171Z,3.21
2019-03-01T06:13:44.366Z,3.21
2019-03-01T06:24:45.184Z,3.21
2019-03-01T06:35:49.861Z,3.22
2019-03-01T06:46:48.061Z,3.21
2019-03-01T06:57:47.268Z,3.21
2019-03-01T07:08:49.474Z,3.22
2019-03-01T07:19:47.361Z,3.26
2019-03-01T07:30:49.030Z,3.30
2019-03-01T07:41:49.465Z,3.30
2019-03-01T07:52:49.068Z,3.32
2019-03-01T08:03:52.271Z,3.33
2019-03-01T08:14:54.020Z,3.35
2019-03-01T08:25:51.899Z,3.34
2019-03-01T08:36:53.601Z,3.37
2019-03-01T08:47:55.490Z,3.39
2019-03-01T08:59:01.615Z,3.40
2019-03-01T09:10:05.861Z,3.41
2019-03-01T09:21:06.156Z,3.43
2019-03-01T09:32:09.500Z,3.38
2019-03-01T09:43:05.444Z,3.40
2019-03-01T09:54:06.541Z,3.39
2019-03-01T10:05:11.344Z,3.39
2019-03-01T10:16:07.678Z,3.39
2019-03-01T10:27:08.810Z,3.39
2019-03-01T10:38:06.939Z,3.39
2019-03-01T10:49:01.500Z,3.39
2019-03-01T10:59:59.043Z,3.43
2019-03-01T11:11:02.177Z,3.39
2019-03-01T11:22:00.077Z,3.39
2019-03-01T11:33:00.323Z,3.39
2019-03-01T11:43:58.452Z,3.39
2019-03-01T11:54:59.718Z,3.39
2019-03-01T12:05:58.546Z,3.39
2019-03-01T12:16:59.322Z,3.40
2019-03-01T12:28:00.573Z,3.39
2019-03-01T12:39:00.997Z,3.39
2019-03-01T12:50:00.096Z,3.41
2019-03-01T13:01:01.215Z,3.39
2019-03-01T13:12:02.198Z,3.40
2019-03-01T13:23:04.866Z,3.42
2019-03-01T13:34:06.956Z,3.41
2019-03-01T13:45:08.196Z,3.40
2019-03-01T13:56:03.141Z,3.39
2019-03-01T14:07:00.090Z,3.39
2019-03-01T14:18:01.138Z,3.40
2019-03-01T14:29:01.246Z,3.40
2019-03-01T14:40:02.776Z,3.39
2019-03-01T14:50:58.092Z,3.40
2019-03-01T15:01:55.800Z,3.39
2019-03-01T15:12:57.772Z,3.39
2019-03-01T15:23:56.150Z,3.42
2019-03-01T15:35:03.956Z,3.40
2019-03-01T15:45:59.713Z,3.42
2019-03-01T15:57:01.682Z,3.43
2019-03-01T16:07:59.875Z,3.42
2019-03-01T16:18:58.080Z,3.41
2019-03-01T16:29:59.574Z,3.40
2019-03-01T16:41:06.413Z,3.39
2019-03-01T16:52:04.422Z,3.38
2019-03-01T17:03:01.055Z,3.37
2019-03-01T17:14:02.704Z,3.37
2019-03-01T17:25:02.769Z,3.36
2019-03-01T17:36:04.934Z,3.36
2019-03-01T17:47:00.223Z,3.34
2019-03-01T17:57:55.371Z,3.34
2019-03-01T18:08:54.051Z,3.34
2019-03-01T18:19:54.877Z,3.33
2019-03-01T18:30:57.547Z,3.33
2019-03-01T18:42:02.398Z,3.32
2019-03-01T18:52:59.227Z,3.32
2019-03-01T19:03:58.995Z,3.32
2019-03-01T19:14:58.573Z,3.31
2019-03-01T19:25:57.990Z,3.30
2019-03-01T19:36:55.521Z,3.30
2019-03-01T19:47:50.964Z,3.30
2019-03-01T19:58:49.083Z,3.29
2019-03-01T20:09:44.631Z,3.29
2019-03-01T20:20:45.065Z,3.29
2019-03-01T20:31:41.544Z,3.28
2019-03-01T20:42:30.075Z,3.28
2019-03-01T20:53:30.033Z,3.28
2019-03-01T21:04:25.105Z,3.27
2019-03-01T21:15:21.463Z,3.27
2019-03-01T21:26:18.306Z,3.26
2019-03-01T21:37:04.070Z,3.26
2019-03-01T21:47:57.794Z,3.26
2019-03-01T21:58:58.784Z,3.25
2019-03-01T22:10:01.388Z,3.25
2019-03-01T22:20:58.011Z,3.25
2019-03-01T22:31:57.390Z,3.25
2019-03-01T22:42:55.237Z,3.25
2019-03-01T22:53:52.754Z,3.24
2019-03-01T23:04:49.897Z,3.24
2019-03-01T23:15:45.101Z,3.23
2019-03-01T23:26:26.725Z,3.23
2019-03-01T23:37:21.849Z,3.22
2019-03-01T23:48:20.909Z,3.22
2019-03-01T23:59:16.866Z,3.22
